Time;durP1;ratioP1;P1;durP2;ratioP2;P2;SDS_P1;SDS_P2;PMS_P1;PMS_P2;Temp;Humidity;BMP_temperature;BMP_pressure;BME280_temperature;BME280_humidity;BME280_pressure;Samples;Min_cycle;Max_cycle;Signal;HPM_P1;HPM_P2
2022/09/06 00:01:38;;;;;;;2.67;1.10;;;;;;;17.79;100.00;100197.13;5012371;28;20045;-83
2022/09/06 00:04:03;;;;;;;2.47;1.67;;;;;;;17.67;100.00;100198.34;5011851;28;20044;-83
2022/09/06 00:06:28;;;;;;;3.70;1.75;;;;;;;17.71;100.00;100199.69;5012009;28;20480;-83
2022/09/06 00:08:54;;;;;;;2.33;1.42;;;;;;;17.72;100.00;100195.25;5010655;28;20030;-83
2022/09/06 00:11:19;;;;;;;2.28;1.60;;;;;;;17.75;100.00;100206.41;5011741;28;20124;-83
2022/09/06 00:13:46;;;;;;;2.20;1.70;;;;;;;17.81;100.00;100195.16;5011743;28;20026;-83
2022/09/06 00:16:16;;;;;;;2.45;1.40;;;;;;;17.86;100.00;100196.53;5012084;28;20028;-83
2022/09/06 00:18:42;;;;;;;3.22;1.60;;;;;;;17.84;100.00;100200.16;5011815;28;20353;-83
2022/09/06 00:21:20;;;;;;;2.30;1.25;;;;;;;17.88;100.00;100200.69;5011902;28;20036;-83
2022/09/06 00:23:45;;;;;;;2.88;1.38;;;;;;;17.86;100.00;100196.53;5009446;28;20025;-83
2022/09/06 00:26:11;;;;;;;11.13;1.58;;;;;;;17.82;100.00;100196.78;5012201;28;20037;-83
2022/09/06 00:28:37;;;;;;;3.80;1.60;;;;;;;17.79;100.00;100197.13;5015538;28;20538;-83
2022/09/06 00:31:15;;;;;;;3.90;1.77;;;;;;;17.82;100.00;100186.16;5015239;28;20033;-83
2022/09/06 00:33:41;;;;;;;5.57;1.30;;;;;;;17.75;100.00;100198.44;5015487;28;20487;-83
2022/09/06 00:36:07;;;;;;;5.63;2.05;;;;;;;17.74;100.00;100204.72;5015347;28;20425;-83
2022/09/06 00:38:32;;;;;;;5.65;1.50;;;;;;;17.73;100.00;100203.06;5013777;28;20029;-83
2022/09/06 00:40:58;;;;;;;3.75;1.73;;;;;;;17.74;100.00;100193.25;5014918;28;20026;-83
2022/09/06 00:43:24;;;;;;;7.75;2.42;;;;;;;17.59;100.00;100193.81;5015168;28;20029;-83
2022/09/06 00:45:51;;;;;;;4.68;2.05;;;;;;;17.70;100.00;100190.09;5015454;28;20013;-83
2022/09/06 00:48:16;;;;;;;4.28;1.60;;;;;;;17.55;100.00;100194.28;5015215;28;20435;-83
2022/09/06 00:50:45;;;;;;;4.28;1.58;;;;;;;17.52;100.00;100194.59;5015276;28;20033;-83
2022/09/06 00:53:10;;;;;;;3.15;1.42;;;;;;;17.66;100.00;100206.50;5011315;28;20121;-83
2022/09/06 00:55:36;;;;;;;3.10;1.63;;;;;;;17.69;100.00;100199.03;5015039;28;20488;-83
2022/09/06 00:58:02;;;;;;;8.20;1.88;;;;;;;17.69;100.00;100196.38;5013750;28;20069;-83
2022/09/06 01:00:28;;;;;;;2.20;1.50;;;;;;;17.69;100.00;100201.69;5014977;28;20022;-83
2022/09/06 01:02:53;;;;;;;4.03;1.60;;;;;;;17.58;100.00;100207.25;5015530;28;20032;-83
2022/09/06 01:05:22;;;;;;;5.57;2.00;;;;;;;17.68;100.00;100204.50;5014950;28;20029;-83
2022/09/06 01:07:57;;;;;;;4.68;1.67;;;;;;;17.68;100.00;100208.00;5013003;28;20031;-83
2022/09/06 01:10:59;;;;;;;4.53;1.50;;;;;;;17.74;100.00;100199.41;5014690;28;20022;-83
2022/09/06 01:13:40;;;;;;;6.05;2.30;;;;;;;17.82;100.00;100211.91;5014756;28;20018;-83
2022/09/06 01:16:32;;;;;;;8.73;2.07;;;;;;;17.92;100.00;100198.56;5014486;28;20034;-83
2022/09/06 01:19:22;;;;;;;7.88;2.65;;;;;;;17.97;100.00;100196.25;5014652;28;20029;-83
2022/09/06 01:22:00;;;;;;;7.07;1.65;;;;;;;18.05;100.00;100201.63;5012759;28;20487;-83
2022/09/06 01:24:55;;;;;;;4.43;1.60;;;;;;;18.04;100.00;100194.63;5010956;28;20388;-83
2022/09/06 01:27:26;;;;;;;4.30;2.33;;;;;;;18.03;100.00;100201.78;4994831;28;20374;-83
2022/09/06 01:30:08;;;;;;;2.78;1.77;;;;;;;17.92;100.00;100195.91;4994549;28;20472;-83
2022/09/06 01:32:44;;;;;;;6.07;2.03;;;;;;;17.90;100.00;100203.19;4994823;28;20034;-83
2022/09/06 01:35:21;;;;;;;7.70;2.20;;;;;;;18.03;100.00;100203.59;4994842;28;20485;-83
2022/09/06 01:37:47;;;;;;;3.10;1.60;;;;;;;17.95;100.00;100195.56;4993433;28;20365;-83
2022/09/06 01:40:12;;;;;;;2.88;1.52;;;;;;;17.94;100.00;100200.06;5002612;28;20105;-83
2022/09/06 01:42:41;;;;;;;4.00;1.42;;;;;;;17.89;100.00;100190.88;5014104;28;20052;-83
2022/09/06 01:45:09;;;;;;;2.40;1.42;;;;;;;17.87;100.00;100190.22;5014238;28;20023;-83
2022/09/06 01:48:01;;;;;;;4.55;1.35;;;;;;;17.86;100.00;100191.22;5013999;28;20018;-83
2022/09/06 01:50:27;;;;;;;3.65;1.70;;;;;;;17.77;100.00;100183.16;5009971;28;20046;-83
2022/09/06 01:53:00;;;;;;;3.45;1.58;;;;;;;17.76;100.00;100168.22;5014083;28;20026;-83
2022/09/06 01:55:38;;;;;;;4.63;1.55;;;;;;;17.74;100.00;100175.50;5012623;28;20042;-83
2022/09/06 01:58:35;;;;;;;6.57;2.28;;;;;;;17.66;100.00;100186.06;5013782;28;20555;-83
2022/09/06 02:01:06;;;;;;;2.05;1.25;;;;;;;17.64;100.00;100194.19;5013667;28;20030;-83
2022/09/06 02:03:45;;;;;;;3.30;1.30;;;;;;;17.55;100.00;100188.97;5013960;28;20384;-83
2022/09/06 02:06:19;;;;;;;2.45;1.50;;;;;;;17.48;100.00;100187.94;5013550;28;20058;-83
2022/09/06 02:08:50;;;;;;;3.10;1.40;;;;;;;17.48;100.00;100193.25;5012670;28;20030;-83
2022/09/06 02:11:16;;;;;;;3.83;1.48;;;;;;;17.48;100.00;100203.88;5013628;28;20435;-83
2022/09/06 02:13:51;;;;;;;3.47;1.60;;;;;;;17.49;100.00;100200.22;5013547;28;20034;-83
2022/09/06 02:16:21;;;;;;;2.72;1.80;;;;;;;17.43;100.00;100197.19;5007680;28;20033;-83
2022/09/06 02:18:53;;;;;;;2.55;1.70;;;;;;;17.42;100.00;100200.84;4993968;28;20080;-83
2022/09/06 02:21:24;;;;;;;4.68;2.00;;;;;;;17.41;100.00;100199.16;4993971;28;20105;-83
2022/09/06 02:23:54;;;;;;;3.40;1.67;;;;;;;17.42;100.00;100189.38;4995011;28;20027;-83
2022/09/06 02:26:24;;;;;;;2.17;1.63;;;;;;;17.45;100.00;100178.44;5013306;28;20065;-83
2022/09/06 02:28:50;;;;;;;2.83;1.40;;;;;;;17.56;100.00;100180.88;5013397;28;20022;-83
2022/09/06 02:31:21;;;;;;;2.90;1.52;;;;;;;17.66;100.00;100185.25;5013237;28;20084;-83
2022/09/06 02:33:47;;;;;;;2.72;1.70;;;;;;;17.72;100.00;100174.00;5013512;28;20025;-83
2022/09/06 02:36:14;;;;;;;7.35;2.28;;;;;;;17.71;100.00;100170.50;5013290;28;20102;-83
2022/09/06 02:38:42;;;;;;;5.07;2.35;;;;;;;17.82;100.00;100172.88;5011114;28;20033;-83
2022/09/06 02:41:08;;;;;;;6.22;2.05;;;;;;;17.88;100.00;100167.97;5006645;28;20035;-83
2022/09/06 02:43:33;;;;;;;2.08;1.60;;;;;;;17.83;100.00;100171.94;4993426;28;20530;-83
2022/09/06 02:45:59;;;;;;;4.15;2.22;;;;;;;17.78;100.00;100171.53;4994060;28;20034;-83
2022/09/06 02:48:24;;;;;;;2.30;1.65;;;;;;;17.75;100.00;100176.31;4996351;28;20480;-83
2022/09/06 02:50:49;;;;;;;2.03;1.60;;;;;;;17.81;100.00;100178.34;4992936;28;20061;-83
2022/09/06 02:53:15;;;;;;;4.93;1.73;;;;;;;17.82;100.00;100182.69;4993420;28;20058;-83
2022/09/06 02:55:47;;;;;;;3.85;1.90;;;;;;;17.76;100.00;100175.34;5010680;28;20041;-82
2022/09/06 02:58:14;;;;;;;3.92;2.17;;;;;;;17.87;100.00;100176.94;5011417;28;20427;-83
2022/09/06 03:00:39;;;;;;;5.93;2.47;;;;;;;17.93;100.00;100165.66;5012754;28;20383;-83
2022/09/06 03:03:05;;;;;;;2.67;1.52;;;;;;;18.01;100.00;100168.41;5011482;28;20018;-82
2022/09/06 03:05:31;;;;;;;2.85;1.67;;;;;;;17.96;100.00;100158.22;5012711;28;20387;-83
2022/09/06 03:07:56;;;;;;;5.13;1.85;;;;;;;17.87;100.00;100145.91;5011249;28;20487;-83
2022/09/06 03:10:22;;;;;;;3.55;1.83;;;;;;;17.91;100.00;100152.56;5011621;28;20030;-82
2022/09/06 03:12:48;;;;;;;2.97;1.80;;;;;;;17.88;100.00;100150.22;5012701;28;20045;-83
2022/09/06 03:15:15;;;;;;;3.40;1.80;;;;;;;17.82;100.00;100140.19;5012623;28;20030;-83
2022/09/06 03:17:41;;;;;;;6.38;1.58;;;;;;;17.69;100.00;100142.44;5012395;28;20103;-83
2022/09/06 03:20:08;;;;;;;3.22;1.85;;;;;;;17.89;100.00;100159.00;5012484;28;20033;-83
2022/09/06 03:22:34;;;;;;;11.50;2.17;;;;;;;17.63;100.00;100149.19;5012341;28;20083;-83
2022/09/06 03:24:59;;;;;;;2.45;2.00;;;;;;;17.75;100.00;100153.28;4997637;28;20026;-83
2022/09/06 03:27:24;;;;;;;3.75;2.00;;;;;;;17.97;100.00;100156.41;4992450;28;20054;-82
2022/09/06 03:29:50;;;;;;;4.20;2.28;;;;;;;17.94;100.00;100162.03;4992809;28;20083;-83
2022/09/06 03:32:15;;;;;;;4.00;2.20;;;;;;;17.99;100.00;100154.41;4991302;28;20049;-83
2022/09/06 03:34:41;;;;;;;4.85;2.58;;;;;;;18.03;100.00;100147.81;4992734;28;20030;-83
2022/09/06 03:37:07;;;;;;;3.67;2.22;;;;;;;18.12;100.00;100154.00;4998005;28;20026;-83
2022/09/06 03:39:32;;;;;;;6.45;2.33;;;;;;;18.22;100.00;100154.69;5012061;28;20029;-83
2022/09/06 03:41:58;;;;;;;3.15;2.10;;;;;;;18.28;100.00;100161.19;5012213;28;20109;-82
2022/09/06 03:44:23;;;;;;;4.47;2.28;;;;;;;18.30;100.00;100152.06;5012237;28;20017;-83
2022/09/06 03:46:50;;;;;;;2.35;1.75;;;;;;;18.35;100.00;100154.25;5012075;28;20173;-83
2022/09/06 03:49:15;;;;;;;4.20;2.05;;;;;;;18.35;100.00;100159.56;5012100;28;20381;-83
2022/09/06 03:51:41;;;;;;;7.45;2.22;;;;;;;18.23;100.00;100157.19;5010658;28;20029;-82
2022/09/06 03:54:06;;;;;;;8.77;2.40;;;;;;;18.19;100.00;100150.53;5012058;28;20037;-83
2022/09/06 03:56:31;;;;;;;5.80;2.70;;;;;;;18.21;100.00;100143.25;5010705;28;20022;-82
2022/09/06 03:58:57;;;;;;;7.07;2.45;;;;;;;18.28;100.00;100147.91;5011932;28;20031;-82
2022/09/06 04:01:22;;;;;;;4.20;2.55;;;;;;;18.37;100.00;100141.63;5012758;28;20431;-83
2022/09/06 04:03:47;;;;;;;4.95;2.50;;;;;;;18.46;100.00;100139.81;5014960;28;20472;-83
2022/09/06 04:06:13;;;;;;;4.93;2.33;;;;;;;18.58;100.00;100142.03;5014935;28;20116;-83
2022/09/06 04:08:38;;;;;;;5.10;2.97;;;;;;;18.54;100.00;100147.81;5015620;28;20116;-83
2022/09/06 04:11:05;;;;;;;5.38;2.95;;;;;;;18.46;100.00;100145.97;5015429;28;20037;-83
2022/09/06 04:13:32;;;;;;;4.72;3.00;;;;;;;18.53;100.00;100144.34;5015715;28;20030;-83
2022/09/06 04:15:57;;;;;;;5.88;3.15;;;;;;;18.56;100.00;100133.38;5015842;28;20049;-83
2022/09/06 04:18:24;;;;;;;4.75;3.50;;;;;;;18.62;100.00;100135.38;5015819;28;20112;-83
2022/09/06 04:20:51;;;;;;;7.72;4.55;;;;;;;18.59;100.00;100135.69;5013790;28;20096;-83
2022/09/06 04:23:17;;;;;;;5.68;3.55;;;;;;;18.60;100.00;100126.75;5015703;28;20029;-83
2022/09/06 04:25:47;;;;;;;6.88;3.70;;;;;;;18.67;100.00;100126.91;5015669;28;20429;-82
2022/09/06 04:28:12;;;;;;;6.25;3.55;;;;;;;18.70;100.00;100133.72;5015490;28;20080;-83
2022/09/06 04:30:37;;;;;;;4.10;3.53;;;;;;;18.74;100.00;100119.09;5015500;28;20026;-83
2022/09/06 04:33:03;;;;;;;6.05;3.42;;;;;;;18.77;100.00;100126.75;5015468;28;20108;-83
2022/09/06 04:35:28;;;;;;;3.88;3.30;;;;;;;18.77;100.00;100116.13;5014486;28;20049;-83
2022/09/06 04:37:53;;;;;;;6.28;4.35;;;;;;;18.67;100.00;100116.28;5015407;28;20053;-83
2022/09/06 04:40:19;;;;;;;5.35;3.35;;;;;;;18.72;100.00;100118.44;5015095;28;20041;-83
2022/09/06 04:42:44;;;;;;;3.75;3.42;;;;;;;18.82;100.00;100119.16;5015423;28;20091;-83
2022/09/06 04:45:09;;;;;;;7.60;3.95;;;;;;;18.64;100.00;100116.59;5015455;28;20095;-83
2022/09/06 04:47:35;;;;;;;6.00;4.03;;;;;;;18.67;100.00;100126.91;5015244;28;20479;-83
2022/09/06 04:50:00;;;;;;;12.38;4.13;;;;;;;18.76;100.00;100114.44;5015248;28;20033;-82
2022/09/06 04:52:25;;;;;;;5.75;3.38;;;;;;;18.75;100.00;100118.13;5013166;28;20030;-83
2022/09/06 04:54:51;;;;;;;4.50;3.55;;;;;;;18.73;100.00;100109.47;5014989;28;20022;-83
2022/09/06 04:57:16;;;;;;;9.98;3.92;;;;;;;18.72;100.00;100124.59;5015034;28;20026;-82
2022/09/06 04:59:41;;;;;;;4.85;3.55;;;;;;;18.73;100.00;100120.94;5015264;28;20072;-83
2022/09/06 05:02:07;;;;;;;6.30;3.72;;;;;;;18.72;100.00;100119.28;5015040;28;20471;-83
2022/09/06 05:04:32;;;;;;;8.13;3.90;;;;;;;18.70;100.00;100104.47;5013596;28;20131;-83
2022/09/06 05:07:06;;;;;;;6.78;4.18;;;;;;;18.65;100.00;100117.44;5013685;28;20037;-83
2022/09/06 05:09:32;;;;;;;7.60;4.47;;;;;;;18.71;100.00;100111.47;5014759;28;20030;-83
2022/09/06 05:11:58;;;;;;;8.57;5.22;;;;;;;18.72;100.00;100113.97;5014737;28;20396;-83
2022/09/06 05:14:24;;;;;;;8.35;6.40;;;;;;;18.67;100.00;100115.44;5014789;28;20029;-83
2022/09/06 05:16:50;;;;;;;8.60;5.20;;;;;;;18.76;100.00;100112.63;5014704;28;20034;-83
2022/09/06 05:19:16;;;;;;;5.18;4.45;;;;;;;18.77;100.00;100108.97;5015009;28;20033;-82
2022/09/06 05:21:41;;;;;;;11.30;5.47;;;;;;;18.76;100.00;100104.66;5012983;28;20403;-83
2022/09/06 05:24:07;;;;;;;5.43;4.88;;;;;;;18.79;100.00;100106.16;5010558;28;20030;-83
2022/09/06 05:26:32;;;;;;;9.93;6.63;;;;;;;18.57;100.00;100097.00;4999849;28;20378;-83
2022/09/06 05:28:57;;;;;;;10.40;6.40;;;;;;;18.70;100.00;100101.81;4994833;28;20050;-82
2022/09/06 05:31:27;;;;;;;11.73;6.68;;;;;;;18.72;100.00;100099.81;4994861;28;20084;-83
2022/09/06 05:33:54;;;;;;;9.05;6.13;;;;;;;18.74;100.00;100092.50;4994933;28;20022;-83
2022/09/06 05:36:22;;;;;;;7.13;5.85;;;;;;;18.75;100.00;100099.50;4994875;28;20436;-83
2022/09/06 05:38:50;;;;;;;16.27;6.45;;;;;;;18.62;100.00;100103.47;4994553;28;20026;-83
2022/09/06 05:41:16;;;;;;;6.03;4.85;;;;;;;18.63;100.00;100105.13;5012244;28;20025;-83
2022/09/06 05:43:41;;;;;;;8.52;4.72;;;;;;;18.76;100.00;100102.00;5013971;28;20025;-82
2022/09/06 05:46:07;;;;;;;6.55;5.10;;;;;;;18.76;100.00;100103.81;5009332;28;20531;-83
2022/09/06 05:48:32;;;;;;;7.72;4.70;;;;;;;18.87;100.00;100100.84;5026226;28;20025;-83
2022/09/06 05:51:02;;;;;;;6.85;5.20;;;;;;;18.76;100.00;100096.69;5021755;28;20026;-83
2022/09/06 05:53:42;;;;;;;9.18;4.97;;;;;;;18.76;100.00;100093.16;5013758;28;20026;-83
2022/09/06 05:56:09;;;;;;;9.25;5.45;;;;;;;18.85;100.00;100100.19;5006834;28;20026;-83
2022/09/06 05:58:35;;;;;;;7.28;4.55;;;;;;;18.96;100.00;100096.41;4995197;28;20532;-84
2022/09/06 06:01:21;;;;;;;8.52;4.65;;;;;;;19.05;100.00;100091.88;5006400;28;20026;-83
2022/09/06 06:03:54;;;;;;;9.68;6.22;;;;;;;19.09;100.00;100087.91;5009233;28;20037;-83
2022/09/06 06:06:20;;;;;;;7.78;5.50;;;;;;;19.18;100.00;100089.56;5013774;28;20072;-83
2022/09/06 06:08:46;;;;;;;8.10;5.15;;;;;;;19.31;100.00;100087.22;5012345;28;20018;-83
2022/09/06 06:11:12;;;;;;;10.77;5.10;;;;;;;19.31;100.00;100087.22;5012588;28;20109;-83
2022/09/06 06:13:42;;;;;;;10.40;4.90;;;;;;;19.42;100.00;100089.50;5013537;28;20050;-83
2022/09/06 06:16:12;;;;;;;15.85;5.25;;;;;;;19.40;100.00;100098.69;5013227;28;20026;-83
2022/09/06 06:18:38;;;;;;;13.77;5.32;;;;;;;19.45;100.00;100099.00;5013416;28;20034;-83
2022/09/06 06:21:17;;;;;;;7.05;4.15;;;;;;;19.52;100.00;100099.16;5013516;28;20044;-83
2022/09/06 06:23:46;;;;;;;7.75;4.53;;;;;;;19.54;100.00;100105.13;5010665;28;20042;-83
2022/09/06 06:26:12;;;;;;;7.72;4.70;;;;;;;19.70;100.00;100102.41;4992478;28;20110;-83
2022/09/06 06:28:38;;;;;;;8.10;4.55;;;;;;;19.89;100.00;100105.75;4993562;28;20026;-83
2022/09/06 06:31:06;;;;;;;8.55;4.35;;;;;;;20.17;100.00;100108.78;5006299;28;20281;-83
2022/09/06 06:33:31;;;;;;;12.13;4.63;;;;;;;20.14;100.00;100112.63;5012160;28;20026;-83
2022/09/06 06:36:05;;;;;;;15.40;4.35;;;;;;;20.18;100.00;100105.09;5013154;28;20022;-84
2022/09/06 06:38:37;;;;;;;12.50;4.18;;;;;;;20.41;100.00;100111.31;5005694;28;20109;-83
2022/09/06 06:41:03;;;;;;;;;;;;;;;20.43;100.00;100111.13;5000881;28;20122;-83
2022/09/06 06:43:35;;;;;;;8.90;3.28;;;;;;;20.62;100.00;100111.72;4993816;28;20004;-83
2022/09/06 06:46:11;;;;;;;8.10;2.85;;;;;;;20.17;100.00;100108.78;5006435;28;19944;-83
2022/09/06 06:48:39;;;;;;;11.05;2.97;;;;;;;20.11;100.00;100115.63;4994341;28;20476;-83
2022/09/06 06:51:06;;;;;;;9.30;3.08;;;;;;;19.73;100.00;100102.13;5000602;28;20361;-83
2022/09/06 06:53:31;;;;;;;11.27;3.22;;;;;;;19.78;100.00;100094.44;4997706;28;20511;-83
2022/09/06 06:55:57;;;;;;;10.75;3.03;;;;;;;20.15;100.00;100089.47;5029642;28;20021;-83
2022/09/06 06:58:22;;;;;;;7.35;3.22;;;;;;;20.50;100.00;100093.44;5021433;28;20030;-83
2022/09/06 07:00:48;;;;;;;11.40;3.20;;;;;;;20.95;100.00;100096.28;4998479;28;20105;-83
2022/09/06 07:03:13;;;;;;;9.60;3.10;;;;;;;20.67;100.00;100101.34;5008562;28;20056;-83
2022/09/06 07:05:42;;;;;;;9.35;2.92;;;;;;;20.25;100.00;100097.25;5012286;28;20022;-83
2022/09/06 07:08:08;;;;;;;10.90;2.85;;;;;;;20.34;100.00;100105.03;5010851;28;20440;-83
2022/09/06 07:10:34;;;;;;;10.07;3.63;;;;;;;20.33;100.00;100106.03;5006343;28;20084;-83
2022/09/06 07:12:59;;;;;;;12.20;2.95;;;;;;;20.04;100.00;100098.66;5006063;28;20117;-83
2022/09/06 07:15:25;;;;;;;14.65;3.53;;;;;;;19.98;100.00;100110.00;5012611;28;20040;-83
2022/09/06 07:17:53;;;;;;;10.30;2.83;;;;;;;20.19;100.00;100114.78;5000746;28;20455;-83
2022/09/06 07:20:19;;;;;;;9.35;3.25;;;;;;;20.47;100.00;100104.44;4992718;28;20033;-83
2022/09/06 07:22:44;;;;;;;10.90;3.22;;;;;;;20.69;100.00;100107.34;5002164;28;20419;-83
2022/09/06 07:25:11;;;;;;;12.23;3.60;;;;;;;20.43;100.00;100111.13;4999808;28;20021;-83
2022/09/06 07:27:37;;;;;;;13.77;2.93;;;;;;;20.43;100.00;100104.97;5005157;28;20393;-83
2022/09/06 07:30:02;;;;;;;12.23;2.50;;;;;;;20.47;100.00;100112.44;5008188;28;20034;-83
2022/09/06 07:32:29;;;;;;;15.30;3.08;;;;;;;20.27;100.00;100104.06;5009160;28;20288;-83
2022/09/06 07:34:55;;;;;;;10.00;2.87;;;;;;;20.34;100.00;100098.84;4992688;28;20476;-83
2022/09/06 07:37:20;;;;;;;16.17;3.08;;;;;;;20.39;100.00;100091.16;4994880;28;20117;-83
2022/09/06 07:39:45;;;;;;;13.90;3.53;;;;;;;20.14;100.00;100088.66;5004515;28;20275;-83
2022/09/06 07:42:11;;;;;;;15.68;3.60;;;;;;;20.05;100.00;100084.34;5012144;28;20026;-83
2022/09/06 07:44:36;;;;;;;9.43;2.70;;;;;;;20.30;100.00;100081.53;5012662;28;20109;-83
2022/09/06 07:47:05;;;;;;;14.27;3.00;;;;;;;20.39;100.00;100085.84;5012142;28;20030;-83
2022/09/06 07:49:33;;;;;;;17.23;3.38;;;;;;;20.57;100.00;100067.69;5012118;28;20021;-83
2022/09/06 07:51:58;;;;;;;15.15;3.53;;;;;;;20.67;100.00;100072.00;5012028;28;20133;-83
2022/09/06 07:54:23;;;;;;;15.55;3.00;;;;;;;20.50;100.00;100076.63;5010842;28;20539;-83
2022/09/06 07:56:49;;;;;;;10.25;2.80;;;;;;;20.75;100.00;100071.94;5011853;28;20022;-83
2022/09/06 07:59:14;;;;;;;19.55;3.75;;;;;;;20.72;100.00;100064.31;5011643;28;20377;-83
2022/09/06 08:01:40;;;;;;;15.60;3.47;;;;;;;20.98;100.00;100053.25;5010506;28;20091;-83
2022/09/06 08:04:14;;;;;;;14.15;3.08;;;;;;;21.34;100.00;100058.72;5011873;28;20030;-83
2022/09/06 08:06:51;;;;;;;10.55;3.28;;;;;;;22.92;100.00;100048.44;5010541;28;20029;-83
2022/09/06 08:09:16;;;;;;;22.75;4.40;;;;;;;25.36;97.03;100025.53;5001202;28;20113;-83
2022/09/06 08:11:41;;;;;;;;;;;;;;;28.74;82.09;100041.59;4993580;28;20113;-83
2022/09/06 08:14:08;;;;;;;;;;;;;;;31.30;61.93;100044.94;4999787;28;20430;-84
2022/09/06 08:16:35;;;;;;;;;;;;;;;30.51;62.87;100064.81;5009816;28;20008;-84
2022/09/06 08:19:01;;;;;;;;;;;;;;;31.62;58.86;100047.84;5010883;28;20134;-83
2022/09/06 08:21:28;;;;;;;;;;;;;;;31.72;56.58;100045.25;5011475;28;19913;-84
2022/09/06 08:24:11;;;;;;;;;;;;;;;31.60;52.26;100066.28;5005137;28;19918;-84
2022/09/06 08:26:39;;;;;;;;;;;;;;;30.05;57.95;100062.88;5007723;28;19913;-84
2022/09/06 08:29:06;;;;;;;;;;;;;;;28.72;63.55;100070.72;5009676;28;20405;-84
2022/09/06 08:31:32;;;;;;;;;;;;;;;27.09;73.13;100071.19;5010803;28;19932;-84
2022/09/06 08:33:59;;;;;;;19.63;2.88;;;;;;;25.70;80.93;100076.28;5009854;28;19992;-84
2022/09/06 08:36:30;;;;;;;13.00;2.92;;;;;;;25.92;81.91;100074.19;5010860;28;20018;-84
2022/09/06 08:39:00;;;;;;;15.38;2.78;;;;;;;25.73;82.30;100062.44;5009252;28;20034;-83
2022/09/06 08:41:36;;;;;;;11.88;2.58;;;;;;;25.71;85.36;100063.66;5005107;28;20054;-84
2022/09/06 08:44:08;;;;;;;13.45;3.80;;;;;;;24.27;91.56;100067.78;5010262;28;20030;-84
2022/09/06 08:46:46;;;;;;;14.43;2.97;;;;;;;24.05;93.62;100073.31;5009998;28;20026;-83
2022/09/06 08:49:11;;;;;;;;;;;;;;;23.28;98.02;100074.28;5012891;28;20046;-83
2022/09/06 08:51:57;;;;;;;18.05;3.03;;;;;;;23.08;100.00;100066.09;5013446;28;19920;-83
2022/09/06 08:54:31;;;;;;;16.80;3.30;;;;;;;22.79;100.00;100062.56;5007974;28;20108;-83
2022/09/06 08:57:19;;;;;;;13.25;2.63;;;;;;;22.82;100.00;100055.97;5014256;28;20018;-84
2022/09/06 08:59:44;;;;;;;15.80;3.00;;;;;;;22.70;100.00;100053.00;4997399;28;20042;-83
2022/09/06 09:02:16;;;;;;;13.05;2.42;;;;;;;22.56;100.00;100062.75;5012195;28;20041;-83
2022/09/06 09:04:46;;;;;;;16.77;3.10;;;;;;;22.60;100.00;100065.88;5011094;28;20499;-83
2022/09/06 09:07:43;;;;;;;13.10;2.50;;;;;;;22.75;100.00;100072.00;5015284;28;20387;-83
2022/09/06 09:10:16;;;;;;;12.10;2.75;;;;;;;22.81;100.00;100065.00;5012237;28;20387;-83
2022/09/06 09:12:46;;;;;;;8.95;2.13;;;;;;;22.52;100.00;100069.50;5006121;28;20057;-83
2022/09/06 09:15:13;;;;;;;17.77;2.63;;;;;;;22.61;100.00;100080.91;5008276;28;20423;-83
2022/09/06 09:17:40;;;;;;;9.60;2.55;;;;;;;22.51;100.00;100070.50;5005406;28;20104;-83
2022/09/06 09:20:07;;;;;;;9.25;2.22;;;;;;;23.03;100.00;100066.69;5013512;28;20055;-83
2022/09/06 09:22:33;;;;;;;13.68;2.55;;;;;;;22.23;100.00;100081.09;5013946;28;20018;-83
2022/09/06 09:25:00;;;;;;;8.80;1.85;;;;;;;22.47;100.00;100072.75;5013340;28;20022;-83
2022/09/06 09:27:28;;;;;;;11.50;2.22;;;;;;;22.32;100.00;100074.66;5013111;28;20036;-82
2022/09/06 09:29:53;;;;;;;11.73;2.22;;;;;;;22.66;100.00;100071.28;5013543;28;19920;-83
2022/09/06 09:32:38;;;;;;;10.27;1.90;;;;;;;22.85;100.00;100066.28;5011072;28;20026;-83
2022/09/06 09:35:14;;;;;;;14.25;2.55;;;;;;;22.37;100.00;100070.38;5010957;28;20113;-82
2022/09/06 09:37:39;;;;;;;12.45;2.10;;;;;;;22.34;100.00;100064.59;5012770;28;20030;-82
2022/09/06 09:40:11;;;;;;;14.85;2.83;;;;;;;22.16;100.00;100070.31;5013430;28;20037;-82
2022/09/06 09:42:38;;;;;;;16.08;2.67;;;;;;;21.73;100.00;100068.34;5012885;28;20022;-82
2022/09/06 09:45:21;;;;;;;14.68;3.30;;;;;;;22.05;100.00;100070.78;5013175;28;20036;-82
2022/09/06 09:47:47;;;;;;;11.77;2.22;;;;;;;21.89;100.00;100070.00;5011507;28;20528;-83
2022/09/06 09:50:24;;;;;;;14.60;2.20;;;;;;;22.71;100.00;100060.84;5013451;28;20106;-82
2022/09/06 09:52:49;;;;;;;11.15;2.45;;;;;;;22.60;100.00;100071.22;5012782;28;20143;-82
2022/09/06 09:55:14;;;;;;;7.07;1.98;;;;;;;22.87;100.00;100065.09;5012946;28;20029;-83
2022/09/06 09:57:47;;;;;;;11.30;2.65;;;;;;;23.01;100.00;100067.88;5013347;28;20029;-83
2022/09/06 10:00:13;;;;;;;9.88;2.05;;;;;;;22.97;100.00;100075.47;5012196;28;20554;-83
2022/09/06 10:02:42;;;;;;;11.02;2.40;;;;;;;22.61;100.00;100064.84;5009810;28;20049;-83
2022/09/06 10:05:10;;;;;;;13.95;2.50;;;;;;;23.04;99.87;100062.97;5004839;28;20076;-83
2022/09/06 10:07:42;;;;;;;17.55;2.90;;;;;;;23.61;97.06;100060.28;5012865;28;20542;-82
2022/09/06 10:10:24;;;;;;;14.48;3.70;;;;;;;23.09;96.09;100047.16;5012478;28;20045;-83
2022/09/06 10:13:16;;;;;;;14.07;2.63;;;;;;;23.44;94.14;100049.88;5012561;28;20025;-82
2022/09/06 10:15:42;;;;;;;16.38;2.63;;;;;;;24.04;92.49;100046.69;5012541;28;20440;-82
2022/09/06 10:18:30;;;;;;;16.27;2.50;;;;;;;25.79;83.28;100035.72;5011358;28;20340;-82
2022/09/06 10:21:18;;;;;;;13.60;2.75;;;;;;;27.57;74.72;100037.34;5001260;28;20018;-82
2022/09/06 10:24:02;;;;;;;14.77;2.97;;;;;;;27.22;71.20;100043.28;5012356;28;20111;-82
2022/09/06 10:26:54;;;;;;;9.48;2.15;;;;;;;28.67;65.65;100021.97;4998742;28;20033;-82
2022/09/06 10:29:49;;;;;;;17.10;2.88;;;;;;;27.31;67.01;100030.34;5007868;28;20061;-83
2022/09/06 10:32:46;;;;;;;;;;;;;;;29.06;62.95;100016.94;5009240;28;20423;-82
2022/09/06 10:35:18;;;;;;;;;;;;;;;29.66;58.09;100015.81;4963723;28;19926;-82
2022/09/06 10:38:01;;;;;;;;;;;;;;;27.60;61.78;100022.59;5005664;28;20060;-83
2022/09/06 10:40:36;;;;;;;;;;;;;;;26.34;66.40;100017.25;4997114;28;19960;-82
2022/09/06 10:43:04;;;;;;;;;;;;;;;26.45;70.60;100004.97;5007775;28;19917;-82
2022/09/06 10:46:02;;;;;;;10.55;2.85;;;;;;;25.73;74.50;99999.75;5011734;28;19924;-82
2022/09/06 10:48:37;;;;;;;14.55;2.78;;;;;;;24.80;80.36;100005.31;5005246;28;20554;-82
2022/09/06 10:51:07;;;;;;;;;;;;;;;23.61;89.64;100012.03;5005311;28;20136;-82
2022/09/06 10:53:46;;;;;;;;;;;;;;;23.61;94.95;100017.41;5010112;28;20078;-82
2022/09/06 10:56:32;;;;;;;16.88;2.72;;;;;;;23.59;96.67;99993.47;5011140;28;20000;-82
2022/09/06 10:59:16;;;;;;;;;;;;;;;23.92;95.49;99998.16;5008629;28;20026;-82
2022/09/06 11:02:02;;;;;;;;;;;;;;;23.03;97.60;99998.94;4993515;28;19914;-83
2022/09/06 11:04:43;;;;;;;15.40;2.50;;;;;;;22.80;99.64;100004.50;4982024;28;19913;-82
2022/09/06 11:07:33;;;;;;;12.15;2.05;;;;;;;24.79;95.94;99983.03;5000597;28;20380;-83
2022/09/06 11:10:25;;;;;;;11.25;2.38;;;;;;;24.94;94.13;99991.69;4999261;28;20030;-83
2022/09/06 11:13:07;;;;;;;8.63;1.75;;;;;;;23.27;95.50;99995.78;4993154;28;20057;-83
2022/09/06 11:15:58;;;;;;;10.25;2.17;;;;;;;24.05;95.06;99987.50;4993126;28;20084;-83
2022/09/06 11:18:35;;;;;;;10.55;2.03;;;;;;;25.09;87.78;99977.19;4992691;28;20042;-83
2022/09/06 11:21:38;;;;;;;9.02;1.52;;;;;;;25.05;85.44;99981.34;4993427;28;20113;-84
2022/09/06 11:24:13;;;;;;;;;;;;;;;25.80;84.35;99972.84;5012774;28;20392;-84
2022/09/06 11:26:39;;;;;;;;;;;;;;;26.10;79.80;99970.41;5012998;28;20315;-84
2022/09/06 11:29:23;;;;;;;10.50;1.47;;;;;;;26.22;75.14;99974.06;5012329;28;20070;-84
2022/09/06 11:31:56;;;;;;;11.18;2.03;;;;;;;27.78;67.77;99967.78;5010690;28;20034;-84
2022/09/06 11:34:23;;;;;;;7.60;2.17;;;;;;;30.35;63.33;99953.53;5007441;28;20505;-84
2022/09/06 11:36:55;;;;;;;;;;;;;;;31.17;57.69;99957.47;5006163;28;20038;-84